sensor_id;sensor_type;location;lat;lon;timestamp;P1;durP1;ratioP1;P2;durP2;ratioP2
29358;SDS011;16347;53.232;6.556;2023-07-29T00:00:53;12.20;;;6.00;;
29358;SDS011;16347;53.232;6.556;2023-07-29T00:03:22;6.57;;;4.97;;
29358;SDS011;16347;53.232;6.556;2023-07-29T00:05:52;9.75;;;6.28;;
29358;SDS011;16347;53.232;6.556;2023-07-29T00:08:21;9.63;;;5.68;;
29358;SDS011;16347;53.232;6.556;2023-07-29T00:10:49;8.77;;;6.40;;
29358;SDS011;16347;53.232;6.556;2023-07-29T00:13:16;7.57;;;5.70;;
29358;SDS011;16347;53.232;6.556;2023-07-29T00:15:47;11.48;;;6.50;;
29358;SDS011;16347;53.232;6.556;2023-07-29T00:18:15;8.73;;;6.80;;
29358;SDS011;16347;53.232;6.556;2023-07-29T00:20:44;10.07;;;6.57;;
29358;SDS011;16347;53.232;6.556;2023-07-29T00:23:14;11.57;;;7.07;;
29358;SDS011;16347;53.232;6.556;2023-07-29T00:25:42;11.25;;;7.03;;
29358;SDS011;16347;53.232;6.556;2023-07-29T00:28:10;9.07;;;6.43;;
29358;SDS011;16347;53.232;6.556;2023-07-29T00:30:38;11.40;;;6.80;;
29358;SDS011;16347;53.232;6.556;2023-07-29T00:33:07;8.07;;;6.43;;
29358;SDS011;16347;53.232;6.556;2023-07-29T00:35:37;10.68;;;6.85;;
29358;SDS011;16347;53.232;6.556;2023-07-29T00:38:05;9.05;;;6.72;;
29358;SDS011;16347;53.232;6.556;2023-07-29T00:40:35;10.07;;;6.68;;
29358;SDS011;16347;53.232;6.556;2023-07-29T00:43:03;13.65;;;6.75;;
29358;SDS011;16347;53.232;6.556;2023-07-29T00:45:31;11.75;;;6.88;;
29358;SDS011;16347;53.232;6.556;2023-07-29T00:47:59;11.85;;;7.38;;
29358;SDS011;16347;53.232;6.556;2023-07-29T00:50:29;12.48;;;7.93;;
29358;SDS011;16347;53.232;6.556;2023-07-29T00:52:59;11.55;;;6.97;;
29358;SDS011;16347;53.232;6.556;2023-07-29T00:55:27;10.30;;;6.55;;
29358;SDS011;16347;53.232;6.556;2023-07-29T00:57:57;8.77;;;6.70;;
29358;SDS011;16347;53.232;6.556;2023-07-29T01:00:25;11.35;;;6.95;;
29358;SDS011;16347;53.232;6.556;2023-07-29T01:02:53;10.43;;;7.50;;
29358;SDS011;16347;53.232;6.556;2023-07-29T01:05:22;10.32;;;7.50;;
29358;SDS011;16347;53.232;6.556;2023-07-29T01:07:55;9.23;;;6.90;;
29358;SDS011;16347;53.232;6.556;2023-07-29T01:10:30;10.70;;;6.95;;
29358;SDS011;16347;53.232;6.556;2023-07-29T01:13:10;10.73;;;7.30;;
29358;SDS011;16347;53.232;6.556;2023-07-29T01:15:45;13.82;;;7.95;;
29358;SDS011;16347;53.232;6.556;2023-07-29T01:18:21;11.10;;;7.47;;
29358;SDS011;16347;53.232;6.556;2023-07-29T01:20:51;10.82;;;7.55;;
29358;SDS011;16347;53.232;6.556;2023-07-29T01:23:26;15.50;;;7.47;;
29358;SDS011;16347;53.232;6.556;2023-07-29T01:25:57;11.93;;;6.78;;
29358;SDS011;16347;53.232;6.556;2023-07-29T01:28:25;13.80;;;7.68;;
29358;SDS011;16347;53.232;6.556;2023-07-29T01:30:57;11.10;;;7.18;;
29358;SDS011;16347;53.232;6.556;2023-07-29T01:33:30;11.50;;;9.25;;
29358;SDS011;16347;53.232;6.556;2023-07-29T01:36:03;11.48;;;6.57;;
29358;SDS011;16347;53.232;6.556;2023-07-29T01:38:38;9.60;;;7.28;;
29358;SDS011;16347;53.232;6.556;2023-07-29T01:41:08;10.68;;;7.38;;
29358;SDS011;16347;53.232;6.556;2023-07-29T01:43:37;9.77;;;6.88;;
29358;SDS011;16347;53.232;6.556;2023-07-29T01:46:10;11.75;;;7.38;;
29358;SDS011;16347;53.232;6.556;2023-07-29T01:48:41;12.35;;;7.63;;
29358;SDS011;16347;53.232;6.556;2023-07-29T01:51:10;15.38;;;7.25;;
29358;SDS011;16347;53.232;6.556;2023-07-29T01:53:40;11.27;;;7.50;;
29358;SDS011;16347;53.232;6.556;2023-07-29T01:56:08;15.13;;;7.25;;
29358;SDS011;16347;53.232;6.556;2023-07-29T01:58:40;10.43;;;8.07;;
29358;SDS011;16347;53.232;6.556;2023-07-29T02:01:08;11.90;;;7.63;;
29358;SDS011;16347;53.232;6.556;2023-07-29T02:03:36;10.73;;;7.20;;
29358;SDS011;16347;53.232;6.556;2023-07-29T02:06:04;11.00;;;7.70;;
29358;SDS011;16347;53.232;6.556;2023-07-29T02:08:32;10.70;;;7.07;;
29358;SDS011;16347;53.232;6.556;2023-07-29T02:11:01;15.23;;;8.43;;
29358;SDS011;16347;53.232;6.556;2023-07-29T02:13:29;13.27;;;7.45;;
29358;SDS011;16347;53.232;6.556;2023-07-29T02:15:57;14.00;;;8.50;;
29358;SDS011;16347;53.232;6.556;2023-07-29T02:18:26;9.77;;;7.15;;
29358;SDS011;16347;53.232;6.556;2023-07-29T02:20:53;14.73;;;7.95;;
29358;SDS011;16347;53.232;6.556;2023-07-29T02:23:21;10.13;;;7.63;;
29358;SDS011;16347;53.232;6.556;2023-07-29T02:25:50;14.52;;;7.63;;
29358;SDS011;16347;53.232;6.556;2023-07-29T02:28:19;12.75;;;8.30;;
29358;SDS011;16347;53.232;6.556;2023-07-29T02:30:47;10.55;;;7.85;;
29358;SDS011;16347;53.232;6.556;2023-07-29T02:33:44;10.93;;;8.02;;
29358;SDS011;16347;53.232;6.556;2023-07-29T02:36:12;11.18;;;8.18;;
29358;SDS011;16347;53.232;6.556;2023-07-29T02:38:41;10.57;;;7.85;;
29358;SDS011;16347;53.232;6.556;2023-07-29T02:41:09;11.27;;;7.85;;
29358;SDS011;16347;53.232;6.556;2023-07-29T02:43:39;16.52;;;8.32;;
29358;SDS011;16347;53.232;6.556;2023-07-29T02:46:09;11.57;;;7.60;;
29358;SDS011;16347;53.232;6.556;2023-07-29T02:48:37;10.75;;;7.70;;
29358;SDS011;16347;53.232;6.556;2023-07-29T02:51:05;10.02;;;7.20;;
29358;SDS011;16347;53.232;6.556;2023-07-29T02:53:32;10.45;;;6.95;;
29358;SDS011;16347;53.232;6.556;2023-07-29T02:56:03;11.68;;;7.82;;
29358;SDS011;16347;53.232;6.556;2023-07-29T02:58:31;10.68;;;7.15;;
29358;SDS011;16347;53.232;6.556;2023-07-29T03:01:01;11.52;;;7.70;;
29358;SDS011;16347;53.232;6.556;2023-07-29T03:03:30;9.05;;;6.95;;
29358;SDS011;16347;53.232;6.556;2023-07-29T03:05:59;11.02;;;7.18;;
29358;SDS011;16347;53.232;6.556;2023-07-29T03:08:28;10.55;;;7.32;;
29358;SDS011;16347;53.232;6.556;2023-07-29T03:10:56;11.93;;;7.47;;
29358;SDS011;16347;53.232;6.556;2023-07-29T03:13:24;12.80;;;7.93;;
29358;SDS011;16347;53.232;6.556;2023-07-29T03:15:52;11.32;;;7.97;;
29358;SDS011;16347;53.232;6.556;2023-07-29T03:18:22;15.27;;;8.95;;
29358;SDS011;16347;53.232;6.556;2023-07-29T03:20:50;16.38;;;7.50;;
29358;SDS011;16347;53.232;6.556;2023-07-29T03:23:18;10.63;;;7.63;;
29358;SDS011;16347;53.232;6.556;2023-07-29T03:25:47;15.13;;;7.70;;
29358;SDS011;16347;53.232;6.556;2023-07-29T03:28:17;13.73;;;7.68;;
29358;SDS011;16347;53.232;6.556;2023-07-29T03:30:45;12.88;;;7.90;;
29358;SDS011;16347;53.232;6.556;2023-07-29T03:33:13;10.73;;;7.93;;
29358;SDS011;16347;53.232;6.556;2023-07-29T03:35:42;13.30;;;8.30;;
29358;SDS011;16347;53.232;6.556;2023-07-29T03:38:11;11.82;;;7.15;;
29358;SDS011;16347;53.232;6.556;2023-07-29T03:40:42;15.65;;;7.68;;
29358;SDS011;16347;53.232;6.556;2023-07-29T03:43:10;10.05;;;7.28;;
29358;SDS011;16347;53.232;6.556;2023-07-29T03:45:39;11.35;;;7.00;;
29358;SDS011;16347;53.232;6.556;2023-07-29T03:48:07;11.90;;;7.25;;
29358;SDS011;16347;53.232;6.556;2023-07-29T03:50:36;12.07;;;7.40;;
29358;SDS011;16347;53.232;6.556;2023-07-29T03:53:05;10.88;;;7.60;;
29358;SDS011;16347;53.232;6.556;2023-07-29T03:55:33;12.05;;;6.82;;
29358;SDS011;16347;53.232;6.556;2023-07-29T03:58:01;12.00;;;7.32;;
29358;SDS011;16347;53.232;6.556;2023-07-29T04:00:30;10.68;;;7.15;;
29358;SDS011;16347;53.232;6.556;2023-07-29T04:02:58;12.60;;;7.22;;
29358;SDS011;16347;53.232;6.556;2023-07-29T04:05:26;14.35;;;7.75;;
29358;SDS011;16347;53.232;6.556;2023-07-29T04:07:54;14.02;;;7.72;;
29358;SDS011;16347;53.232;6.556;2023-07-29T04:10:23;10.93;;;7.10;;
29358;SDS011;16347;53.232;6.556;2023-07-29T04:12:51;10.57;;;6.65;;
29358;SDS011;16347;53.232;6.556;2023-07-29T04:15:19;10.55;;;7.05;;
29358;SDS011;16347;53.232;6.556;2023-07-29T04:17:47;13.30;;;6.75;;
29358;SDS011;16347;53.232;6.556;2023-07-29T04:20:15;8.57;;;6.75;;
29358;SDS011;16347;53.232;6.556;2023-07-29T04:22:43;12.07;;;6.72;;
29358;SDS011;16347;53.232;6.556;2023-07-29T04:25:11;10.18;;;6.30;;
29358;SDS011;16347;53.232;6.556;2023-07-29T04:27:41;12.57;;;6.53;;
29358;SDS011;16347;53.232;6.556;2023-07-29T04:30:09;14.27;;;6.15;;
29358;SDS011;16347;53.232;6.556;2023-07-29T04:32:37;15.63;;;6.80;;
29358;SDS011;16347;53.232;6.556;2023-07-29T04:35:07;9.98;;;6.13;;
29358;SDS011;16347;53.232;6.556;2023-07-29T04:37:36;10.35;;;6.07;;
29358;SDS011;16347;53.232;6.556;2023-07-29T04:40:04;10.48;;;5.90;;
29358;SDS011;16347;53.232;6.556;2023-07-29T04:42:33;7.57;;;5.53;;
29358;SDS011;16347;53.232;6.556;2023-07-29T04:45:03;9.30;;;6.00;;
29358;SDS011;16347;53.232;6.556;2023-07-29T04:47:32;10.07;;;6.43;;
29358;SDS011;16347;53.232;6.556;2023-07-29T04:50:00;12.70;;;5.90;;
29358;SDS011;16347;53.232;6.556;2023-07-29T04:52:27;11.02;;;5.50;;
29358;SDS011;16347;53.232;6.556;2023-07-29T04:54:56;8.95;;;5.63;;
29358;SDS011;16347;53.232;6.556;2023-07-29T04:57:26;8.95;;;5.25;;
29358;SDS011;16347;53.232;6.556;2023-07-29T04:59:54;10.10;;;5.50;;
29358;SDS011;16347;53.232;6.556;2023-07-29T05:02:23;14.75;;;4.85;;
29358;SDS011;16347;53.232;6.556;2023-07-29T05:04:52;8.10;;;4.65;;
29358;SDS011;16347;53.232;6.556;2023-07-29T05:07:20;7.78;;;4.32;;
29358;SDS011;16347;53.232;6.556;2023-07-29T05:09:47;7.78;;;4.35;;
29358;SDS011;16347;53.232;6.556;2023-07-29T05:12:16;8.65;;;5.00;;
29358;SDS011;16347;53.232;6.556;2023-07-29T05:14:43;8.07;;;4.75;;
29358;SDS011;16347;53.232;6.556;2023-07-29T05:17:11;8.48;;;4.53;;
29358;SDS011;16347;53.232;6.556;2023-07-29T05:19:41;8.07;;;4.28;;
29358;SDS011;16347;53.232;6.556;2023-07-29T05:22:09;12.63;;;4.28;;
29358;SDS011;16347;53.232;6.556;2023-07-29T05:24:37;12.55;;;4.32;;
29358;SDS011;16347;53.232;6.556;2023-07-29T05:27:05;7.70;;;3.95;;
29358;SDS011;16347;53.232;6.556;2023-07-29T05:29:34;18.52;;;3.97;;
29358;SDS011;16347;53.232;6.556;2023-07-29T05:32:03;5.45;;;3.20;;
29358;SDS011;16347;53.232;6.556;2023-07-29T05:34:31;10.32;;;3.95;;
29358;SDS011;16347;53.232;6.556;2023-07-29T05:37:00;9.98;;;4.03;;
29358;SDS011;16347;53.232;6.556;2023-07-29T05:39:29;7.18;;;3.67;;
29358;SDS011;16347;53.232;6.556;2023-07-29T05:41:58;6.43;;;3.20;;
29358;SDS011;16347;53.232;6.556;2023-07-29T05:44:29;9.45;;;3.63;;
29358;SDS011;16347;53.232;6.556;2023-07-29T05:46:58;8.38;;;3.72;;
29358;SDS011;16347;53.232;6.556;2023-07-29T05:49:26;7.25;;;3.40;;
29358;SDS011;16347;53.232;6.556;2023-07-29T05:51:54;8.50;;;3.22;;
29358;SDS011;16347;53.232;6.556;2023-07-29T05:54:23;6.47;;;3.63;;
29358;SDS011;16347;53.232;6.556;2023-07-29T05:56:52;8.32;;;3.78;;
29358;SDS011;16347;53.232;6.556;2023-07-29T05:59:19;12.18;;;3.60;;
29358;SDS011;16347;53.232;6.556;2023-07-29T06:01:49;5.75;;;3.28;;
29358;SDS011;16347;53.232;6.556;2023-07-29T06:04:17;5.60;;;3.53;;
29358;SDS011;16347;53.232;6.556;2023-07-29T06:06:45;6.45;;;3.42;;
29358;SDS011;16347;53.232;6.556;2023-07-29T06:09:13;13.25;;;3.80;;
29358;SDS011;16347;53.232;6.556;2023-07-29T06:11:42;20.58;;;5.20;;
29358;SDS011;16347;53.232;6.556;2023-07-29T06:14:10;7.32;;;3.33;;
29358;SDS011;16347;53.232;6.556;2023-07-29T06:16:40;8.10;;;3.65;;
29358;SDS011;16347;53.232;6.556;2023-07-29T06:19:08;7.25;;;3.50;;
29358;SDS011;16347;53.232;6.556;2023-07-29T06:21:36;7.50;;;3.60;;
29358;SDS011;16347;53.232;6.556;2023-07-29T06:24:04;8.48;;;3.40;;
29358;SDS011;16347;53.232;6.556;2023-07-29T06:26:35;5.57;;;3.55;;
29358;SDS011;16347;53.232;6.556;2023-07-29T06:29:05;9.75;;;4.05;;
29358;SDS011;16347;53.232;6.556;2023-07-29T06:31:32;6.80;;;3.95;;
29358;SDS011;16347;53.232;6.556;2023-07-29T06:34:00;9.23;;;3.35;;
29358;SDS011;16347;53.232;6.556;2023-07-29T06:36:28;12.13;;;4.50;;
29358;SDS011;16347;53.232;6.556;2023-07-29T06:38:56;18.52;;;4.15;;
29358;SDS011;16347;53.232;6.556;2023-07-29T06:41:24;6.47;;;3.65;;
29358;SDS011;16347;53.232;6.556;2023-07-29T06:43:52;12.50;;;3.63;;
29358;SDS011;16347;53.232;6.556;2023-07-29T06:46:21;7.97;;;4.00;;
29358;SDS011;16347;53.232;6.556;2023-07-29T06:48:51;8.10;;;3.83;;
29358;SDS011;16347;53.232;6.556;2023-07-29T06:51:19;10.25;;;4.28;;
29358;SDS011;16347;53.232;6.556;2023-07-29T06:53:46;11.32;;;4.25;;
29358;SDS011;16347;53.232;6.556;2023-07-29T06:56:14;9.15;;;4.00;;
29358;SDS011;16347;53.232;6.556;2023-07-29T06:58:42;11.20;;;4.05;;
29358;SDS011;16347;53.232;6.556;2023-07-29T07:01:10;13.95;;;4.30;;
29358;SDS011;16347;53.232;6.556;2023-07-29T07:03:40;12.70;;;4.13;;
29358;SDS011;16347;53.232;6.556;2023-07-29T07:06:08;8.63;;;3.80;;
29358;SDS011;16347;53.232;6.556;2023-07-29T07:08:36;12.23;;;3.90;;
29358;SDS011;16347;53.232;6.556;2023-07-29T07:11:04;15.07;;;4.38;;
29358;SDS011;16347;53.232;6.556;2023-07-29T07:13:33;14.05;;;4.47;;
29358;SDS011;16347;53.232;6.556;2023-07-29T07:16:01;8.18;;;4.25;;
29358;SDS011;16347;53.232;6.556;2023-07-29T07:18:29;9.75;;;3.92;;
29358;SDS011;16347;53.232;6.556;2023-07-29T07:20:58;16.95;;;4.00;;
29358;SDS011;16347;53.232;6.556;2023-07-29T07:23:26;7.97;;;4.10;;
29358;SDS011;16347;53.232;6.556;2023-07-29T07:25:54;15.07;;;4.20;;
29358;SDS011;16347;53.232;6.556;2023-07-29T07:28:21;13.25;;;4.28;;
29358;SDS011;16347;53.232;6.556;2023-07-29T07:30:49;11.70;;;4.13;;
29358;SDS011;16347;53.232;6.556;2023-07-29T07:33:17;10.13;;;4.68;;
29358;SDS011;16347;53.232;6.556;2023-07-29T07:35:45;11.48;;;4.53;;
29358;SDS011;16347;53.232;6.556;2023-07-29T07:38:14;10.85;;;4.65;;
29358;SDS011;16347;53.232;6.556;2023-07-29T07:40:42;10.18;;;4.32;;
29358;SDS011;16347;53.232;6.556;2023-07-29T07:43:19;13.90;;;4.47;;
29358;SDS011;16347;53.232;6.556;2023-07-29T07:45:47;9.30;;;4.00;;
29358;SDS011;16347;53.232;6.556;2023-07-29T07:48:15;13.07;;;3.75;;
29358;SDS011;16347;53.232;6.556;2023-07-29T07:50:43;15.90;;;4.57;;
29358;SDS011;16347;53.232;6.556;2023-07-29T07:53:10;8.88;;;3.58;;
29358;SDS011;16347;53.232;6.556;2023-07-29T07:55:40;10.63;;;3.83;;
29358;SDS011;16347;53.232;6.556;2023-07-29T07:58:08;13.77;;;4.72;;
29358;SDS011;16347;53.232;6.556;2023-07-29T08:00:36;13.45;;;3.80;;
29358;SDS011;16347;53.232;6.556;2023-07-29T08:03:04;8.60;;;4.35;;
29358;SDS011;16347;53.232;6.556;2023-07-29T08:05:32;14.00;;;4.07;;
29358;SDS011;16347;53.232;6.556;2023-07-29T08:07:59;13.55;;;3.50;;
29358;SDS011;16347;53.232;6.556;2023-07-29T08:10:27;11.48;;;4.00;;
29358;SDS011;16347;53.232;6.556;2023-07-29T08:12:57;6.40;;;3.22;;
29358;SDS011;16347;53.232;6.556;2023-07-29T08:15:25;9.43;;;3.80;;
29358;SDS011;16347;53.232;6.556;2023-07-29T08:17:53;7.45;;;3.53;;
29358;SDS011;16347;53.232;6.556;2023-07-29T08:20:21;9.40;;;4.00;;
29358;SDS011;16347;53.232;6.556;2023-07-29T08:22:49;16.42;;;4.30;;
29358;SDS011;16347;53.232;6.556;2023-07-29T08:25:17;11.23;;;4.05;;
29358;SDS011;16347;53.232;6.556;2023-07-29T08:27:46;13.70;;;3.60;;
29358;SDS011;16347;53.232;6.556;2023-07-29T08:30:15;27.35;;;4.05;;
29358;SDS011;16347;53.232;6.556;2023-07-29T08:32:44;6.32;;;2.95;;
29358;SDS011;16347;53.232;6.556;2023-07-29T08:35:12;14.75;;;3.70;;
29358;SDS011;16347;53.232;6.556;2023-07-29T08:37:40;12.95;;;3.33;;
29358;SDS011;16347;53.232;6.556;2023-07-29T08:40:08;12.25;;;3.40;;
29358;SDS011;16347;53.232;6.556;2023-07-29T08:42:37;5.63;;;2.80;;
29358;SDS011;16347;53.232;6.556;2023-07-29T08:45:09;8.57;;;2.60;;
29358;SDS011;16347;53.232;6.556;2023-07-29T08:47:39;11.88;;;3.00;;
29358;SDS011;16347;53.232;6.556;2023-07-29T08:50:07;12.63;;;2.67;;
29358;SDS011;16347;53.232;6.556;2023-07-29T08:52:41;12.65;;;3.08;;
29358;SDS011;16347;53.232;6.556;2023-07-29T08:55:10;7.40;;;2.60;;
29358;SDS011;16347;53.232;6.556;2023-07-29T08:57:38;6.40;;;2.70;;
29358;SDS011;16347;53.232;6.556;2023-07-29T09:00:07;8.00;;;2.22;;
29358;SDS011;16347;53.232;6.556;2023-07-29T09:02:35;9.23;;;3.33;;
29358;SDS011;16347;53.232;6.556;2023-07-29T09:05:06;7.72;;;2.70;;
29358;SDS011;16347;53.232;6.556;2023-07-29T09:07:35;4.93;;;2.13;;
29358;SDS011;16347;53.232;6.556;2023-07-29T09:10:04;4.85;;;1.85;;
29358;SDS011;16347;53.232;6.556;2023-07-29T09:12:36;7.10;;;2.10;;
29358;SDS011;16347;53.232;6.556;2023-07-29T09:15:04;7.70;;;2.58;;
29358;SDS011;16347;53.232;6.556;2023-07-29T09:17:33;7.35;;;2.40;;
29358;SDS011;16347;53.232;6.556;2023-07-29T09:20:01;7.15;;;2.05;;
29358;SDS011;16347;53.232;6.556;2023-07-29T09:22:32;7.95;;;2.47;;
29358;SDS011;16347;53.232;6.556;2023-07-29T09:25:00;3.85;;;1.88;;
29358;SDS011;16347;53.232;6.556;2023-07-29T09:27:28;10.85;;;2.33;;
29358;SDS011;16347;53.232;6.556;2023-07-29T09:29:59;5.95;;;1.95;;
29358;SDS011;16347;53.232;6.556;2023-07-29T09:32:27;7.07;;;1.77;;
29358;SDS011;16347;53.232;6.556;2023-07-29T09:34:55;5.15;;;1.85;;
29358;SDS011;16347;53.232;6.556;2023-07-29T09:37:23;6.85;;;2.15;;
29358;SDS011;16347;53.232;6.556;2023-07-29T09:39:53;9.88;;;1.88;;
29358;SDS011;16347;53.232;6.556;2023-07-29T09:42:21;7.55;;;1.98;;
29358;SDS011;16347;53.232;6.556;2023-07-29T09:44:50;10.07;;;2.28;;
29358;SDS011;16347;53.232;6.556;2023-07-29T09:47:19;7.75;;;1.77;;
29358;SDS011;16347;53.232;6.556;2023-07-29T09:49:48;4.93;;;2.03;;
29358;SDS011;16347;53.232;6.556;2023-07-29T09:52:17;7.63;;;1.88;;
29358;SDS011;16347;53.232;6.556;2023-07-29T09:54:45;11.57;;;1.73;;
29358;SDS011;16347;53.232;6.556;2023-07-29T09:57:16;7.53;;;1.73;;
29358;SDS011;16347;53.232;6.556;2023-07-29T09:59:52;12.63;;;1.90;;
29358;SDS011;16347;53.232;6.556;2023-07-29T10:02:21;4.50;;;1.42;;
29358;SDS011;16347;53.232;6.556;2023-07-29T10:04:51;4.70;;;1.48;;
29358;SDS011;16347;53.232;6.556;2023-07-29T10:07:20;5.25;;;1.60;;
29358;SDS011;16347;53.232;6.556;2023-07-29T10:09:48;3.70;;;1.75;;
29358;SDS011;16347;53.232;6.556;2023-07-29T10:12:19;5.97;;;1.70;;
29358;SDS011;16347;53.232;6.556;2023-07-29T10:14:49;6.18;;;1.85;;
29358;SDS011;16347;53.232;6.556;2023-07-29T10:17:18;6.95;;;1.50;;
29358;SDS011;16347;53.232;6.556;2023-07-29T10:19:48;6.50;;;1.88;;
29358;SDS011;16347;53.232;6.556;2023-07-29T10:22:17;6.85;;;1.73;;
29358;SDS011;16347;53.232;6.556;2023-07-29T10:24:48;5.68;;;1.40;;
29358;SDS011;16347;53.232;6.556;2023-07-29T10:27:20;4.15;;;1.80;;
29358;SDS011;16347;53.232;6.556;2023-07-29T10:29:51;4.13;;;1.45;;
29358;SDS011;16347;53.232;6.556;2023-07-29T10:32:23;7.53;;;1.60;;
29358;SDS011;16347;53.232;6.556;2023-07-29T10:34:54;3.28;;;1.40;;
29358;SDS011;16347;53.232;6.556;2023-07-29T10:37:22;7.10;;;2.03;;
29358;SDS011;16347;53.232;6.556;2023-07-29T10:39:52;7.28;;;1.60;;
29358;SDS011;16347;53.232;6.556;2023-07-29T10:42:22;4.00;;;1.48;;
29358;SDS011;16347;53.232;6.556;2023-07-29T10:44:51;3.38;;;1.60;;
29358;SDS011;16347;53.232;6.556;2023-07-29T10:47:20;3.25;;;1.20;;
29358;SDS011;16347;53.232;6.556;2023-07-29T10:49:51;4.32;;;1.45;;
29358;SDS011;16347;53.232;6.556;2023-07-29T10:52:28;7.65;;;1.63;;
29358;SDS011;16347;53.232;6.556;2023-07-29T10:54:58;4.60;;;1.83;;
29358;SDS011;16347;53.232;6.556;2023-07-29T10:57:33;10.05;;;1.67;;
29358;SDS011;16347;53.232;6.556;2023-07-29T11:00:03;7.50;;;1.55;;
29358;SDS011;16347;53.232;6.556;2023-07-29T11:02:34;2.28;;;1.30;;
29358;SDS011;16347;53.232;6.556;2023-07-29T11:05:04;2.83;;;1.50;;
29358;SDS011;16347;53.232;6.556;2023-07-29T11:07:42;4.57;;;1.40;;
29358;SDS011;16347;53.232;6.556;2023-07-29T11:10:12;3.80;;;1.67;;
29358;SDS011;16347;53.232;6.556;2023-07-29T11:12:43;3.08;;;1.50;;
29358;SDS011;16347;53.232;6.556;2023-07-29T11:15:17;7.50;;;1.80;;
29358;SDS011;16347;53.232;6.556;2023-07-29T11:17:47;9.45;;;2.38;;
29358;SDS011;16347;53.232;6.556;2023-07-29T11:20:17;7.05;;;2.60;;
29358;SDS011;16347;53.232;6.556;2023-07-29T11:22:46;6.47;;;2.28;;
29358;SDS011;16347;53.232;6.556;2023-07-29T11:25:15;4.55;;;1.50;;
29358;SDS011;16347;53.232;6.556;2023-07-29T11:27:46;4.57;;;1.67;;
29358;SDS011;16347;53.232;6.556;2023-07-29T11:30:14;6.70;;;1.30;;
29358;SDS011;16347;53.232;6.556;2023-07-29T11:32:43;7.38;;;1.77;;
29358;SDS011;16347;53.232;6.556;2023-07-29T11:35:13;3.15;;;1.50;;
29358;SDS011;16347;53.232;6.556;2023-07-29T11:37:43;3.38;;;1.63;;
29358;SDS011;16347;53.232;6.556;2023-07-29T11:40:13;3.42;;;2.10;;
29358;SDS011;16347;53.232;6.556;2023-07-29T11:42:41;5.30;;;2.03;;
29358;SDS011;16347;53.232;6.556;2023-07-29T11:45:11;7.88;;;2.20;;
29358;SDS011;16347;53.232;6.556;2023-07-29T11:50:12;4.03;;;1.95;;
29358;SDS011;16347;53.232;6.556;2023-07-29T11:52:41;10.48;;;2.38;;
29358;SDS011;16347;53.232;6.556;2023-07-29T11:55:11;6.70;;;1.98;;
29358;SDS011;16347;53.232;6.556;2023-07-29T11:57:41;5.25;;;2.10;;
29358;SDS011;16347;53.232;6.556;2023-07-29T12:00:12;6.05;;;2.20;;
29358;SDS011;16347;53.232;6.556;2023-07-29T12:02:42;8.82;;;2.38;;
29358;SDS011;16347;53.232;6.556;2023-07-29T12:05:12;6.15;;;2.03;;
29358;SDS011;16347;53.232;6.556;2023-07-29T12:07:42;7.70;;;2.58;;
29358;SDS011;16347;53.232;6.556;2023-07-29T12:10:11;7.43;;;2.72;;
29358;SDS011;16347;53.232;6.556;2023-07-29T12:12:46;6.03;;;2.35;;
29358;SDS011;16347;53.232;6.556;2023-07-29T12:15:23;8.15;;;1.92;;
29358;SDS011;16347;53.232;6.556;2023-07-29T12:17:53;10.38;;;2.53;;
29358;SDS011;16347;53.232;6.556;2023-07-29T12:20:23;7.63;;;1.92;;
29358;SDS011;16347;53.232;6.556;2023-07-29T12:22:53;5.03;;;2.58;;
29358;SDS011;16347;53.232;6.556;2023-07-29T12:25:22;8.52;;;2.38;;
29358;SDS011;16347;53.232;6.556;2023-07-29T12:27:50;5.32;;;2.25;;
29358;SDS011;16347;53.232;6.556;2023-07-29T12:30:22;5.32;;;1.55;;
29358;SDS011;16347;53.232;6.556;2023-07-29T12:32:52;2.95;;;2.00;;
29358;SDS011;16347;53.232;6.556;2023-07-29T12:35:20;5.70;;;1.90;;
29358;SDS011;16347;53.232;6.556;2023-07-29T12:37:57;6.38;;;2.30;;
29358;SDS011;16347;53.232;6.556;2023-07-29T12:40:26;7.97;;;1.98;;
29358;SDS011;16347;53.232;6.556;2023-07-29T12:42:54;7.55;;;2.30;;
29358;SDS011;16347;53.232;6.556;2023-07-29T12:45:24;7.55;;;2.30;;
29358;SDS011;16347;53.232;6.556;2023-07-29T12:47:55;5.25;;;2.10;;
29358;SDS011;16347;53.232;6.556;2023-07-29T12:50:23;7.20;;;2.45;;
29358;SDS011;16347;53.232;6.556;2023-07-29T12:52:52;4.57;;;1.70;;
29358;SDS011;16347;53.232;6.556;2023-07-29T12:55:19;3.33;;;1.88;;
29358;SDS011;16347;53.232;6.556;2023-07-29T12:57:49;6.15;;;1.92;;
29358;SDS011;16347;53.232;6.556;2023-07-29T13:00:18;5.95;;;2.20;;
29358;SDS011;16347;53.232;6.556;2023-07-29T13:02:47;5.18;;;1.80;;
29358;SDS011;16347;53.232;6.556;2023-07-29T13:05:15;6.00;;;1.90;;
29358;SDS011;16347;53.232;6.556;2023-07-29T13:07:43;5.45;;;1.88;;
29358;SDS011;16347;53.232;6.556;2023-07-29T13:10:11;4.72;;;1.48;;
29358;SDS011;16347;53.232;6.556;2023-07-29T13:12:40;4.53;;;1.90;;
29358;SDS011;16347;53.232;6.556;2023-07-29T13:15:08;4.35;;;1.83;;
29358;SDS011;16347;53.232;6.556;2023-07-29T13:17:37;5.00;;;1.60;;
29358;SDS011;16347;53.232;6.556;2023-07-29T13:20:08;3.65;;;2.13;;
29358;SDS011;16347;53.232;6.556;2023-07-29T13:22:36;3.17;;;1.45;;
29358;SDS011;16347;53.232;6.556;2023-07-29T13:25:04;5.55;;;1.67;;
29358;SDS011;16347;53.232;6.556;2023-07-29T13:27:32;6.97;;;1.85;;
29358;SDS011;16347;53.232;6.556;2023-07-29T13:30:01;5.28;;;2.03;;
29358;SDS011;16347;53.232;6.556;2023-07-29T13:32:29;3.75;;;1.77;;
29358;SDS011;16347;53.232;6.556;2023-07-29T13:34:57;3.25;;;1.65;;
29358;SDS011;16347;53.232;6.556;2023-07-29T13:37:26;6.00;;;1.50;;
29358;SDS011;16347;53.232;6.556;2023-07-29T13:39:54;4.47;;;1.80;;
29358;SDS011;16347;53.232;6.556;2023-07-29T13:42:22;11.00;;;2.03;;
29358;SDS011;16347;53.232;6.556;2023-07-29T13:44:50;4.40;;;1.75;;
29358;SDS011;16347;53.232;6.556;2023-07-29T13:47:18;6.93;;;2.15;;
29358;SDS011;16347;53.232;6.556;2023-07-29T13:49:46;7.55;;;2.00;;
29358;SDS011;16347;53.232;6.556;2023-07-29T13:52:14;6.53;;;2.20;;
29358;SDS011;16347;53.232;6.556;2023-07-29T13:54:43;6.32;;;1.88;;
29358;SDS011;16347;53.232;6.556;2023-07-29T13:57:11;6.10;;;1.80;;
29358;SDS011;16347;53.232;6.556;2023-07-29T13:59:39;7.30;;;2.20;;
29358;SDS011;16347;53.232;6.556;2023-07-29T14:02:07;5.78;;;1.83;;
29358;SDS011;16347;53.232;6.556;2023-07-29T14:04:35;8.70;;;1.60;;
29358;SDS011;16347;53.232;6.556;2023-07-29T14:07:03;4.13;;;1.75;;
29358;SDS011;16347;53.232;6.556;2023-07-29T14:09:32;9.48;;;1.90;;
29358;SDS011;16347;53.232;6.556;2023-07-29T14:12:01;7.40;;;2.08;;
29358;SDS011;16347;53.232;6.556;2023-07-29T14:14:30;13.30;;;2.00;;
29358;SDS011;16347;53.232;6.556;2023-07-29T14:16:58;6.97;;;2.10;;
29358;SDS011;16347;53.232;6.556;2023-07-29T14:19:26;5.65;;;1.98;;
29358;SDS011;16347;53.232;6.556;2023-07-29T14:21:54;11.43;;;2.58;;
29358;SDS011;16347;53.232;6.556;2023-07-29T14:24:22;10.70;;;2.63;;
29358;SDS011;16347;53.232;6.556;2023-07-29T14:26:50;6.78;;;2.75;;
29358;SDS011;16347;53.232;6.556;2023-07-29T14:29:19;3.90;;;1.95;;
29358;SDS011;16347;53.232;6.556;2023-07-29T14:31:47;11.27;;;2.22;;
29358;SDS011;16347;53.232;6.556;2023-07-29T14:34:16;5.30;;;2.00;;
29358;SDS011;16347;53.232;6.556;2023-07-29T14:36:44;6.60;;;2.22;;
29358;SDS011;16347;53.232;6.556;2023-07-29T14:39:11;7.38;;;1.98;;
29358;SDS011;16347;53.232;6.556;2023-07-29T14:41:39;8.23;;;2.03;;
29358;SDS011;16347;53.232;6.556;2023-07-29T14:44:07;4.53;;;1.83;;
29358;SDS011;16347;53.232;6.556;2023-07-29T14:46:36;4.38;;;1.92;;
29358;SDS011;16347;53.232;6.556;2023-07-29T14:49:05;7.45;;;2.45;;
29358;SDS011;16347;53.232;6.556;2023-07-29T14:51:32;8.73;;;2.08;;
29358;SDS011;16347;53.232;6.556;2023-07-29T14:54:02;6.95;;;2.30;;